sensor_id;sensor_type;location;lat;lon;timestamp;pressure;altitude;pressure_sealevel;temperature;humidity
21706;BME280;11014;53.076;18.208;2023-04-19T00:00:03;102115.31;;;10.35;47.33
21706;BME280;11014;53.076;18.208;2023-04-19T00:03:21;102111.16;;;10.32;47.37
21706;BME280;11014;53.076;18.208;2023-04-19T00:05:53;102103.16;;;10.18;47.37
21706;BME280;11014;53.076;18.208;2023-04-19T00:08:21;102103.81;;;10.05;47.74
21706;BME280;11014;53.076;18.208;2023-04-19T00:10:50;102106.63;;;9.97;48.28
21706;BME280;11014;53.076;18.208;2023-04-19T00:13:18;102100.53;;;9.88;48.51
21706;BME280;11014;53.076;18.208;2023-04-19T00:15:48;102104.44;;;9.86;48.44
21706;BME280;11014;53.076;18.208;2023-04-19T00:18:16;102095.66;;;9.77;48.66
21706;BME280;11014;53.076;18.208;2023-04-19T00:20:45;102107.16;;;9.71;48.88
21706;BME280;11014;53.076;18.208;2023-04-19T00:23:15;102095.69;;;9.63;48.93
21706;BME280;11014;53.076;18.208;2023-04-19T00:25:45;102091.91;;;9.57;49.11
21706;BME280;11014;53.076;18.208;2023-04-19T00:28:14;102094.25;;;9.45;49.28
21706;BME280;11014;53.076;18.208;2023-04-19T00:30:43;102098.50;;;9.40;49.59
21706;BME280;11014;53.076;18.208;2023-04-19T00:33:11;102097.41;;;9.34;49.52
21706;BME280;11014;53.076;18.208;2023-04-19T00:35:40;102089.28;;;9.28;49.59
21706;BME280;11014;53.076;18.208;2023-04-19T00:38:09;102083.81;;;9.21;49.37
21706;BME280;11014;53.076;18.208;2023-04-19T00:40:38;102077.91;;;9.11;49.63
21706;BME280;11014;53.076;18.208;2023-04-19T00:43:06;102080.69;;;9.03;49.67
21706;BME280;11014;53.076;18.208;2023-04-19T00:45:35;102077.75;;;8.98;50.15
21706;BME280;11014;53.076;18.208;2023-04-19T00:48:04;102070.63;;;8.90;50.03
21706;BME280;11014;53.076;18.208;2023-04-19T00:50:33;102075.16;;;8.90;49.87
21706;BME280;11014;53.076;18.208;2023-04-19T00:53:03;102075.50;;;8.87;50.09
21706;BME280;11014;53.076;18.208;2023-04-19T00:55:32;102065.88;;;8.78;50.37
21706;BME280;11014;53.076;18.208;2023-04-19T00:58:00;102061.09;;;8.73;50.19
21706;BME280;11014;53.076;18.208;2023-04-19T01:00:30;102056.25;;;8.69;50.25
21706;BME280;11014;53.076;18.208;2023-04-19T01:02:59;102058.03;;;8.62;50.94
21706;BME280;11014;53.076;18.208;2023-04-19T01:05:29;102056.25;;;8.54;51.16
21706;BME280;11014;53.076;18.208;2023-04-19T01:07:57;102051.63;;;8.48;51.36
21706;BME280;11014;53.076;18.208;2023-04-19T01:10:26;102066.56;;;8.43;51.55
21706;BME280;11014;53.076;18.208;2023-04-19T01:12:55;102054.56;;;8.39;51.39
21706;BME280;11014;53.076;18.208;2023-04-19T01:15:32;102058.81;;;8.33;51.91
21706;BME280;11014;53.076;18.208;2023-04-19T01:18:01;102062.84;;;8.29;52.09
21706;BME280;11014;53.076;18.208;2023-04-19T01:20:30;102050.97;;;8.23;52.04
21706;BME280;11014;53.076;18.208;2023-04-19T01:22:59;102048.66;;;8.20;52.60
21706;BME280;11014;53.076;18.208;2023-04-19T01:25:29;102051.69;;;8.17;52.29
21706;BME280;11014;53.076;18.208;2023-04-19T01:27:59;102051.25;;;8.14;52.29
21706;BME280;11014;53.076;18.208;2023-04-19T01:30:28;102050.75;;;8.10;52.56
21706;BME280;11014;53.076;18.208;2023-04-19T01:32:56;102043.28;;;8.06;52.60
21706;BME280;11014;53.076;18.208;2023-04-19T01:35:25;102037.53;;;8.09;52.79
21706;BME280;11014;53.076;18.208;2023-04-19T01:37:54;102031.66;;;8.13;52.81
21706;BME280;11014;53.076;18.208;2023-04-19T01:40:24;102026.97;;;8.15;53.04
21706;BME280;11014;53.076;18.208;2023-04-19T01:42:54;102027.31;;;8.12;53.28
21706;BME280;11014;53.076;18.208;2023-04-19T01:45:26;102035.63;;;8.17;53.00
21706;BME280;11014;53.076;18.208;2023-04-19T01:47:54;102029.09;;;8.20;53.68
21706;BME280;11014;53.076;18.208;2023-04-19T01:50:23;102024.72;;;8.27;53.37
21706;BME280;11014;53.076;18.208;2023-04-19T01:52:52;102020.94;;;8.36;53.58
21706;BME280;11014;53.076;18.208;2023-04-19T01:55:20;102014.22;;;8.40;53.43
21706;BME280;11014;53.076;18.208;2023-04-19T01:57:52;102017.81;;;8.47;53.58
21706;BME280;11014;53.076;18.208;2023-04-19T02:00:22;102008.59;;;8.50;53.35
21706;BME280;11014;53.076;18.208;2023-04-19T02:02:51;101997.88;;;8.50;53.10
21706;BME280;11014;53.076;18.208;2023-04-19T02:05:20;101993.34;;;8.36;53.77
21706;BME280;11014;53.076;18.208;2023-04-19T02:07:48;101988.78;;;8.21;53.86
21706;BME280;11014;53.076;18.208;2023-04-19T02:10:18;101997.88;;;8.12;54.03
21706;BME280;11014;53.076;18.208;2023-04-19T02:12:46;101999.63;;;8.05;54.44
21706;BME280;11014;53.076;18.208;2023-04-19T02:15:15;101998.31;;;8.01;54.38
21706;BME280;11014;53.076;18.208;2023-04-19T02:17:43;101997.38;;;7.94;54.75
21706;BME280;11014;53.076;18.208;2023-04-19T02:20:15;101999.75;;;7.89;54.88
21706;BME280;11014;53.076;18.208;2023-04-19T02:22:44;101989.41;;;7.86;54.69
21706;BME280;11014;53.076;18.208;2023-04-19T02:25:15;101989.28;;;7.80;55.20
21706;BME280;11014;53.076;18.208;2023-04-19T02:27:46;101978.09;;;7.76;55.34
21706;BME280;11014;53.076;18.208;2023-04-19T02:30:14;101984.00;;;7.71;55.16
21706;BME280;11014;53.076;18.208;2023-04-19T02:32:47;101976.69;;;7.65;55.06
21706;BME280;11014;53.076;18.208;2023-04-19T02:35:16;101965.88;;;7.59;55.67
21706;BME280;11014;53.076;18.208;2023-04-19T02:37:44;101961.91;;;7.55;55.54
21706;BME280;11014;53.076;18.208;2023-04-19T02:40:13;101968.78;;;7.49;55.60
21706;BME280;11014;53.076;18.208;2023-04-19T02:42:41;101968.31;;;7.46;55.80
21706;BME280;11014;53.076;18.208;2023-04-19T02:45:10;101960.66;;;7.43;56.01
21706;BME280;11014;53.076;18.208;2023-04-19T02:47:38;101965.31;;;7.41;56.18
21706;BME280;11014;53.076;18.208;2023-04-19T02:50:08;101962.19;;;7.37;56.32
21706;BME280;11014;53.076;18.208;2023-04-19T02:52:43;101957.66;;;7.38;56.75
21706;BME280;11014;53.076;18.208;2023-04-19T02:55:11;101949.63;;;7.38;56.94
21706;BME280;11014;53.076;18.208;2023-04-19T02:57:40;101953.63;;;7.42;56.95
21706;BME280;11014;53.076;18.208;2023-04-19T03:00:11;101948.59;;;7.47;57.14
21706;BME280;11014;53.076;18.208;2023-04-19T03:02:45;101943.59;;;7.44;57.64
21706;BME280;11014;53.076;18.208;2023-04-19T03:05:14;101932.91;;;7.44;57.62
21706;BME280;11014;53.076;18.208;2023-04-19T03:07:43;101934.38;;;7.46;58.00
21706;BME280;11014;53.076;18.208;2023-04-19T03:10:13;101935.50;;;7.52;58.21
21706;BME280;11014;53.076;18.208;2023-04-19T03:12:42;101922.75;;;7.62;58.00
21706;BME280;11014;53.076;18.208;2023-04-19T03:15:10;101922.50;;;7.71;58.30
21706;BME280;11014;53.076;18.208;2023-04-19T03:17:39;101914.88;;;7.83;58.07
21706;BME280;11014;53.076;18.208;2023-04-19T03:20:08;101910.91;;;7.94;58.40
21706;BME280;11014;53.076;18.208;2023-04-19T03:22:39;101909.66;;;8.04;58.57
21706;BME280;11014;53.076;18.208;2023-04-19T03:25:10;101909.84;;;8.17;58.67
21706;BME280;11014;53.076;18.208;2023-04-19T03:27:48;101905.22;;;8.26;58.45
21706;BME280;11014;53.076;18.208;2023-04-19T03:30:24;101906.66;;;8.37;58.38
21706;BME280;11014;53.076;18.208;2023-04-19T03:32:53;101901.56;;;8.42;58.17
21706;BME280;11014;53.076;18.208;2023-04-19T03:35:22;101908.31;;;8.52;58.32
21706;BME280;11014;53.076;18.208;2023-04-19T03:37:55;101911.06;;;8.59;58.53
21706;BME280;11014;53.076;18.208;2023-04-19T03:40:23;101906.66;;;8.66;58.16
21706;BME280;11014;53.076;18.208;2023-04-19T03:42:52;101912.91;;;8.73;58.31
21706;BME280;11014;53.076;18.208;2023-04-19T03:45:29;101905.59;;;8.81;58.62
21706;BME280;11014;53.076;18.208;2023-04-19T03:47:58;101910.22;;;8.87;58.75
21706;BME280;11014;53.076;18.208;2023-04-19T03:50:29;101907.66;;;9.15;58.69
21706;BME280;11014;53.076;18.208;2023-04-19T03:52:59;101896.75;;;9.02;58.57
21706;BME280;11014;53.076;18.208;2023-04-19T03:55:28;101900.47;;;9.01;58.91
21706;BME280;11014;53.076;18.208;2023-04-19T03:57:56;101886.88;;;9.03;59.48
21706;BME280;11014;53.076;18.208;2023-04-19T04:00:46;101881.59;;;9.09;59.25
21706;BME280;11014;53.076;18.208;2023-04-19T04:03:15;101884.16;;;9.17;59.83
21706;BME280;11014;53.076;18.208;2023-04-19T04:05:44;101877.00;;;9.24;59.60
21706;BME280;11014;53.076;18.208;2023-04-19T04:08:12;101891.31;;;9.31;59.75
21706;BME280;11014;53.076;18.208;2023-04-19T04:10:41;101903.75;;;9.39;59.88
21706;BME280;11014;53.076;18.208;2023-04-19T04:13:10;101901.53;;;9.42;60.34
21706;BME280;11014;53.076;18.208;2023-04-19T04:15:59;101894.63;;;9.33;60.58
21706;BME280;11014;53.076;18.208;2023-04-19T04:18:27;101905.09;;;9.49;60.75
21706;BME280;11014;53.076;18.208;2023-04-19T04:20:56;101894.81;;;9.53;61.21
21706;BME280;11014;53.076;18.208;2023-04-19T04:23:25;101897.75;;;9.58;61.14
21706;BME280;11014;53.076;18.208;2023-04-19T04:26:00;101887.06;;;9.65;61.06
21706;BME280;11014;53.076;18.208;2023-04-19T04:28:53;101888.97;;;9.71;61.19
21706;BME280;11014;53.076;18.208;2023-04-19T04:31:22;101888.59;;;9.74;61.08
21706;BME280;11014;53.076;18.208;2023-04-19T04:33:51;101887.19;;;9.78;61.16
21706;BME280;11014;53.076;18.208;2023-04-19T04:36:22;101891.34;;;9.80;61.10
21706;BME280;11014;53.076;18.208;2023-04-19T04:38:51;101893.22;;;9.86;61.30
21706;BME280;11014;53.076;18.208;2023-04-19T04:41:22;101902.56;;;9.90;61.09
21706;BME280;11014;53.076;18.208;2023-04-19T04:43:50;101900.50;;;9.92;61.09
21706;BME280;11014;53.076;18.208;2023-04-19T04:46:37;101898.47;;;9.94;61.40
21706;BME280;11014;53.076;18.208;2023-04-19T04:49:10;101904.25;;;9.98;61.46
21706;BME280;11014;53.076;18.208;2023-04-19T04:51:42;101899.78;;;9.77;61.98
21706;BME280;11014;53.076;18.208;2023-04-19T04:54:10;101893.91;;;9.67;62.70
21706;BME280;11014;53.076;18.208;2023-04-19T04:56:40;101898.25;;;9.68;62.93
21706;BME280;11014;53.076;18.208;2023-04-19T04:59:09;101896.19;;;9.70;63.22
21706;BME280;11014;53.076;18.208;2023-04-19T05:01:42;101881.75;;;9.71;63.18
21706;BME280;11014;53.076;18.208;2023-04-19T05:04:11;101874.56;;;9.72;63.41
21706;BME280;11014;53.076;18.208;2023-04-19T05:06:40;101863.44;;;9.75;63.83
21706;BME280;11014;53.076;18.208;2023-04-19T05:09:10;101869.44;;;9.77;63.80
21706;BME280;11014;53.076;18.208;2023-04-19T05:11:40;101875.25;;;9.80;63.56
21706;BME280;11014;53.076;18.208;2023-04-19T05:14:08;101867.59;;;10.11;63.07
21706;BME280;11014;53.076;18.208;2023-04-19T05:16:38;101856.56;;;10.21;62.39
21706;BME280;11014;53.076;18.208;2023-04-19T05:19:07;101857.41;;;10.28;62.35
21706;BME280;11014;53.076;18.208;2023-04-19T05:21:42;101845.44;;;10.31;62.26
21706;BME280;11014;53.076;18.208;2023-04-19T05:24:10;101857.00;;;10.31;61.99
21706;BME280;11014;53.076;18.208;2023-04-19T05:26:39;101852.88;;;10.29;62.03
21706;BME280;11014;53.076;18.208;2023-04-19T05:29:08;101844.59;;;10.30;62.12
21706;BME280;11014;53.076;18.208;2023-04-19T05:31:50;101844.19;;;10.33;61.97
21706;BME280;11014;53.076;18.208;2023-04-19T05:34:25;101837.19;;;10.32;61.54
21706;BME280;11014;53.076;18.208;2023-04-19T05:36:56;101847.09;;;10.32;61.70
21706;BME280;11014;53.076;18.208;2023-04-19T05:39:25;101848.94;;;10.31;61.79
21706;BME280;11014;53.076;18.208;2023-04-19T05:41:54;101837.59;;;10.29;61.66
21706;BME280;11014;53.076;18.208;2023-04-19T05:44:22;101826.84;;;10.29;61.51
21706;BME280;11014;53.076;18.208;2023-04-19T05:46:52;101823.09;;;10.30;61.42
21706;BME280;11014;53.076;18.208;2023-04-19T05:49:41;101815.69;;;10.32;60.91
21706;BME280;11014;53.076;18.208;2023-04-19T05:52:18;101807.88;;;10.37;61.11
21706;BME280;11014;53.076;18.208;2023-04-19T05:54:50;101812.84;;;10.40;60.62
21706;BME280;11014;53.076;18.208;2023-04-19T05:57:19;101815.13;;;10.43;60.58
21706;BME280;11014;53.076;18.208;2023-04-19T05:59:48;101818.44;;;10.45;60.59
21706;BME280;11014;53.076;18.208;2023-04-19T06:02:21;101818.66;;;10.50;60.13
21706;BME280;11014;53.076;18.208;2023-04-19T06:04:50;101820.75;;;10.55;60.32
21706;BME280;11014;53.076;18.208;2023-04-19T06:07:19;101824.88;;;10.51;60.36
21706;BME280;11014;53.076;18.208;2023-04-19T06:10:01;101831.59;;;10.81;59.95
21706;BME280;11014;53.076;18.208;2023-04-19T06:12:29;101835.47;;;10.65;59.61
21706;BME280;11014;53.076;18.208;2023-04-19T06:14:58;101830.09;;;10.65;59.96
21706;BME280;11014;53.076;18.208;2023-04-19T06:17:26;101833.19;;;10.69;59.99
21706;BME280;11014;53.076;18.208;2023-04-19T06:19:55;101823.50;;;10.75;59.63
21706;BME280;11014;53.076;18.208;2023-04-19T06:22:24;101828.69;;;10.76;59.54
21706;BME280;11014;53.076;18.208;2023-04-19T06:24:53;101853.94;;;10.82;59.77
21706;BME280;11014;53.076;18.208;2023-04-19T06:27:22;101840.50;;;10.82;59.81
21706;BME280;11014;53.076;18.208;2023-04-19T06:29:50;101828.88;;;10.75;59.82
21706;BME280;11014;53.076;18.208;2023-04-19T06:32:19;101823.28;;;10.69;59.67
21706;BME280;11014;53.076;18.208;2023-04-19T06:34:47;101814.59;;;10.67;60.09
21706;BME280;11014;53.076;18.208;2023-04-19T06:37:16;101802.97;;;10.60;60.19
21706;BME280;11014;53.076;18.208;2023-04-19T06:39:45;101799.72;;;10.65;60.31
21706;BME280;11014;53.076;18.208;2023-04-19T06:42:14;101799.72;;;10.71;60.08
21706;BME280;11014;53.076;18.208;2023-04-19T06:44:42;101800.16;;;10.75;60.12
21706;BME280;11014;53.076;18.208;2023-04-19T06:47:11;101799.72;;;10.71;60.18
21706;BME280;11014;53.076;18.208;2023-04-19T06:49:39;101791.66;;;10.71;60.51
21706;BME280;11014;53.076;18.208;2023-04-19T06:52:08;101798.06;;;10.70;60.32
21706;BME280;11014;53.076;18.208;2023-04-19T06:54:36;101795.38;;;10.70;60.48
21706;BME280;11014;53.076;18.208;2023-04-19T06:57:05;101795.56;;;10.69;60.77
21706;BME280;11014;53.076;18.208;2023-04-19T06:59:33;101800.75;;;10.70;60.69
21706;BME280;11014;53.076;18.208;2023-04-19T07:02:06;101800.34;;;10.74;60.82
21706;BME280;11014;53.076;18.208;2023-04-19T07:04:35;101802.63;;;10.77;60.80
21706;BME280;11014;53.076;18.208;2023-04-19T07:07:04;101803.84;;;10.74;60.87
21706;BME280;11014;53.076;18.208;2023-04-19T07:09:32;101810.47;;;10.71;61.15
21706;BME280;11014;53.076;18.208;2023-04-19T07:12:01;101799.94;;;10.70;61.07
21706;BME280;11014;53.076;18.208;2023-04-19T07:14:29;101807.97;;;10.63;61.49
21706;BME280;11014;53.076;18.208;2023-04-19T07:16:58;101808.78;;;10.64;61.58
21706;BME280;11014;53.076;18.208;2023-04-19T07:19:27;101809.41;;;10.59;61.49
21706;BME280;11014;53.076;18.208;2023-04-19T07:21:56;101817.88;;;10.56;62.07
21706;BME280;11014;53.076;18.208;2023-04-19T07:24:24;101802.16;;;10.53;61.73
21706;BME280;11014;53.076;18.208;2023-04-19T07:26:55;101810.56;;;10.37;62.43
21706;BME280;11014;53.076;18.208;2023-04-19T07:29:24;101780.19;;;10.37;62.66
21706;BME280;11014;53.076;18.208;2023-04-19T07:31:53;101791.72;;;10.31;62.95
21706;BME280;11014;53.076;18.208;2023-04-19T07:34:22;101782.44;;;10.33;62.74
21706;BME280;11014;53.076;18.208;2023-04-19T07:36:51;101783.47;;;10.32;63.00
21706;BME280;11014;53.076;18.208;2023-04-19T07:39:19;101771.06;;;10.31;63.41
21706;BME280;11014;53.076;18.208;2023-04-19T07:41:48;101767.75;;;10.29;63.31
21706;BME280;11014;53.076;18.208;2023-04-19T07:44:16;101768.16;;;10.26;63.51
21706;BME280;11014;53.076;18.208;2023-04-19T07:46:45;101757.81;;;10.23;63.88
21706;BME280;11014;53.076;18.208;2023-04-19T07:49:14;101757.41;;;10.26;63.86
21706;BME280;11014;53.076;18.208;2023-04-19T07:51:43;101756.22;;;10.35;63.16
21706;BME280;11014;53.076;18.208;2023-04-19T07:54:11;101759.13;;;10.40;63.21
21706;BME280;11014;53.076;18.208;2023-04-19T07:56:40;101776.47;;;10.44;63.22
21706;BME280;11014;53.076;18.208;2023-04-19T07:59:09;101764.03;;;10.30;63.47
21706;BME280;11014;53.076;18.208;2023-04-19T08:01:37;101759.47;;;10.24;63.79
21706;BME280;11014;53.076;18.208;2023-04-19T08:04:06;101768.16;;;10.26;64.24
21706;BME280;11014;53.076;18.208;2023-04-19T08:06:36;101764.84;;;10.24;64.11
21706;BME280;11014;53.076;18.208;2023-04-19T08:09:06;101765.47;;;10.26;64.31
21706;BME280;11014;53.076;18.208;2023-04-19T08:11:36;101757.44;;;10.33;64.48
21706;BME280;11014;53.076;18.208;2023-04-19T08:14:04;101757.47;;;10.39;64.33
21706;BME280;11014;53.076;18.208;2023-04-19T08:16:53;101762.88;;;10.46;64.02
21706;BME280;11014;53.076;18.208;2023-04-19T08:19:24;101764.94;;;10.50;64.11
21706;BME280;11014;53.076;18.208;2023-04-19T08:21:52;101761.44;;;10.56;64.07
21706;BME280;11014;53.076;18.208;2023-04-19T08:24:21;101756.72;;;10.65;64.06
21706;BME280;11014;53.076;18.208;2023-04-19T08:26:50;101755.06;;;10.70;64.08
21706;BME280;11014;53.076;18.208;2023-04-19T08:29:21;101759.63;;;10.77;64.09
21706;BME280;11014;53.076;18.208;2023-04-19T08:31:50;101760.66;;;10.82;64.22
21706;BME280;11014;53.076;18.208;2023-04-19T08:34:18;101768.75;;;10.89;64.13
21706;BME280;11014;53.076;18.208;2023-04-19T08:36:47;101759.88;;;10.95;63.96
21706;BME280;11014;53.076;18.208;2023-04-19T08:39:31;101756.78;;;10.98;63.85
21706;BME280;11014;53.076;18.208;2023-04-19T08:42:06;101746.63;;;11.00;63.66
21706;BME280;11014;53.076;18.208;2023-04-19T08:44:51;101746.41;;;11.01;63.71
21706;BME280;11014;53.076;18.208;2023-04-19T08:47:40;101746.84;;;10.92;64.15
21706;BME280;11014;53.076;18.208;2023-04-19T08:50:24;101760.47;;;10.90;64.16
21706;BME280;11014;53.076;18.208;2023-04-19T08:53:03;101742.69;;;10.96;63.82
21706;BME280;11014;53.076;18.208;2023-04-19T08:55:51;101743.72;;;10.95;63.87
21706;BME280;11014;53.076;18.208;2023-04-19T08:58:28;101744.16;;;10.98;64.24
21706;BME280;11014;53.076;18.208;2023-04-19T09:04:09;101737.53;;;11.14;63.94
21706;BME280;11014;53.076;18.208;2023-04-19T09:06:57;101730.91;;;11.16;63.92
21706;BME280;11014;53.076;18.208;2023-04-19T09:09:28;101728.22;;;11.16;63.65
21706;BME280;11014;53.076;18.208;2023-04-19T09:12:00;101732.78;;;11.16;63.88
21706;BME280;11014;53.076;18.208;2023-04-19T09:14:28;101725.31;;;11.18;64.13
21706;BME280;11014;53.076;18.208;2023-04-19T09:17:12;101724.09;;;11.27;64.24
21706;BME280;11014;53.076;18.208;2023-04-19T09:19:46;101720.38;;;11.28;64.25
21706;BME280;11014;53.076;18.208;2023-04-19T09:22:16;101728.22;;;11.29;63.90
21706;BME280;11014;53.076;18.208;2023-04-19T09:24:45;101724.28;;;11.32;64.35
21706;BME280;11014;53.076;18.208;2023-04-19T09:27:35;101725.31;;;11.38;64.26
21706;BME280;11014;53.076;18.208;2023-04-19T09:30:05;101719.94;;;11.44;64.04
21706;BME280;11014;53.076;18.208;2023-04-19T09:32:46;101728.19;;;11.49;64.15
21706;BME280;11014;53.076;18.208;2023-04-19T09:35:16;101714.13;;;11.47;63.88
21706;BME280;11014;53.076;18.208;2023-04-19T09:37:57;101717.81;;;11.59;63.95
21706;BME280;11014;53.076;18.208;2023-04-19T09:40:34;101719.06;;;11.63;64.17
21706;BME280;11014;53.076;18.208;2023-04-19T09:43:02;101711.19;;;11.68;63.87
21706;BME280;11014;53.076;18.208;2023-04-19T09:45:51;101711.19;;;11.75;64.09
21706;BME280;11014;53.076;18.208;2023-04-19T09:48:21;101710.34;;;11.81;63.85
21706;BME280;11014;53.076;18.208;2023-04-19T09:50:55;101709.50;;;11.87;63.83
21706;BME280;11014;53.076;18.208;2023-04-19T09:53:31;101708.25;;;11.89;63.17
21706;BME280;11014;53.076;18.208;2023-04-19T09:56:02;101708.47;;;11.88;63.28
21706;BME280;11014;53.076;18.208;2023-04-19T09:58:33;101707.81;;;11.93;63.58
21706;BME280;11014;53.076;18.208;2023-04-19T10:01:18;101708.59;;;12.00;63.33
21706;BME280;11014;53.076;18.208;2023-04-19T10:03:48;101710.88;;;12.09;63.40
21706;BME280;11014;53.076;18.208;2023-04-19T10:06:19;101713.53;;;12.16;63.15
21706;BME280;11014;53.076;18.208;2023-04-19T10:08:52;101707.69;;;12.19;62.70
21706;BME280;11014;53.076;18.208;2023-04-19T10:11:22;101700.63;;;12.24;62.48
21706;BME280;11014;53.076;18.208;2023-04-19T10:13:55;101696.38;;;12.48;62.48
21706;BME280;11014;53.076;18.208;2023-04-19T10:16:25;101692.28;;;12.32;61.79
21706;BME280;11014;53.076;18.208;2023-04-19T10:18:54;101692.75;;;12.29;62.04
21706;BME280;11014;53.076;18.208;2023-04-19T10:21:26;101698.50;;;12.33;62.60
21706;BME280;11014;53.076;18.208;2023-04-19T10:23:55;101693.94;;;12.40;62.33
21706;BME280;11014;53.076;18.208;2023-04-19T10:26:24;101689.31;;;12.47;62.42
21706;BME280;11014;53.076;18.208;2023-04-19T10:28:54;101686.78;;;12.52;62.13
21706;BME280;11014;53.076;18.208;2023-04-19T10:31:26;101682.19;;;12.59;61.94
21706;BME280;11014;53.076;18.208;2023-04-19T10:33:54;101692.09;;;12.65;61.77
21706;BME280;11014;53.076;18.208;2023-04-19T10:36:26;101687.91;;;12.69;62.04
21706;BME280;11014;53.076;18.208;2023-04-19T10:38:55;101685.81;;;12.71;61.60
21706;BME280;11014;53.076;18.208;2023-04-19T10:41:56;101672.94;;;12.73;61.77
21706;BME280;11014;53.076;18.208;2023-04-19T10:44:26;101677.91;;;12.76;61.72
21706;BME280;11014;53.076;18.208;2023-04-19T10:46:55;101684.72;;;13.03;61.16
21706;BME280;11014;53.076;18.208;2023-04-19T10:49:23;101680.53;;;12.89;61.61
21706;BME280;11014;53.076;18.208;2023-04-19T10:51:52;101674.50;;;12.87;61.58
21706;BME280;11014;53.076;18.208;2023-04-19T10:54:37;101679.00;;;12.93;61.53
21706;BME280;11014;53.076;18.208;2023-04-19T10:57:09;101685.72;;;12.84;61.14
21706;BME280;11014;53.076;18.208;2023-04-19T10:59:39;101675.16;;;12.83;61.23
21706;BME280;11014;53.076;18.208;2023-04-19T11:07:21;101682.97;;;12.91;60.29
21706;BME280;11014;53.076;18.208;2023-04-19T11:09:49;101689.53;;;12.77;60.11
21706;BME280;11014;53.076;18.208;2023-04-19T11:12:20;101685.38;;;12.74;60.26
21706;BME280;11014;53.076;18.208;2023-04-19T11:14:53;101687.06;;;12.75;60.83
21706;BME280;11014;53.076;18.208;2023-04-19T11:17:28;101684.56;;;12.74;60.86
21706;BME280;11014;53.076;18.208;2023-04-19T11:20:08;101687.50;;;12.72;60.62
21706;BME280;11014;53.076;18.208;2023-04-19T11:22:39;101686.63;;;12.78;60.75
21706;BME280;11014;53.076;18.208;2023-04-19T11:25:18;101698.00;;;12.80;60.78
21706;BME280;11014;53.076;18.208;2023-04-19T11:27:50;101685.56;;;12.79;60.99
21706;BME280;11014;53.076;18.208;2023-04-19T11:30:21;101689.13;;;12.73;60.69
21706;BME280;11014;53.076;18.208;2023-04-19T11:32:54;101688.69;;;12.76;60.61
21706;BME280;11014;53.076;18.208;2023-04-19T11:35:27;101685.78;;;12.78;60.95
21706;BME280;11014;53.076;18.208;2023-04-19T11:37:58;101690.38;;;12.71;61.12
21706;BME280;11014;53.076;18.208;2023-04-19T11:40:26;101691.38;;;12.76;60.89
21706;BME280;11014;53.076;18.208;2023-04-19T11:43:00;101691.22;;;12.71;60.44
21706;BME280;11014;53.076;18.208;2023-04-19T11:45:32;101694.50;;;12.73;60.66
21706;BME280;11014;53.076;18.208;2023-04-19T11:48:14;101699.66;;;12.81;61.09
21706;BME280;11014;53.076;18.208;2023-04-19T11:50:44;101705.81;;;12.88;60.92
21706;BME280;11014;53.076;18.208;2023-04-19T11:53:22;101703.72;;;12.90;60.82
21706;BME280;11014;53.076;18.208;2023-04-19T11:55:52;101709.56;;;12.87;60.43
21706;BME280;11014;53.076;18.208;2023-04-19T11:58:28;101713.31;;;12.86;60.87
21706;BME280;11014;53.076;18.208;2023-04-19T12:01:07;101717.63;;;12.87;60.78
21706;BME280;11014;53.076;18.208;2023-04-19T12:03:46;101717.63;;;12.87;60.43
21706;BME280;11014;53.076;18.208;2023-04-19T12:06:41;101713.25;;;12.93;60.56
21706;BME280;11014;53.076;18.208;2023-04-19T12:09:10;101707.69;;;12.88;60.21
21706;BME280;11014;53.076;18.208;2023-04-19T12:11:46;101710.19;;;12.89;60.31
21706;BME280;11014;53.076;18.208;2023-04-19T12:15:06;101710.63;;;12.86;60.01
21706;BME280;11014;53.076;18.208;2023-04-19T12:18:01;101717.03;;;12.85;60.16
21706;BME280;11014;53.076;18.208;2023-04-19T12:20:31;101720.78;;;12.84;60.33
21706;BME280;11014;53.076;18.208;2023-04-19T12:23:01;101711.81;;;12.90;60.56
21706;BME280;11014;53.076;18.208;2023-04-19T12:25:32;101711.81;;;12.90;60.58
21706;BME280;11014;53.076;18.208;2023-04-19T12:28:02;101717.16;;;12.97;60.52
21706;BME280;11014;53.076;18.208;2023-04-19T12:30:31;101715.50;;;12.96;60.80
21706;BME280;11014;53.076;18.208;2023-04-19T12:33:01;101715.47;;;13.02;60.87
21706;BME280;11014;53.076;18.208;2023-04-19T12:35:30;101716.91;;;13.05;60.25
21706;BME280;11014;53.076;18.208;2023-04-19T12:37:58;101715.66;;;13.07;59.99
21706;BME280;11014;53.076;18.208;2023-04-19T12:40:28;101719.19;;;13.08;59.97
21706;BME280;11014;53.076;18.208;2023-04-19T12:42:57;101715.03;;;13.05;59.89
21706;BME280;11014;53.076;18.208;2023-04-19T12:45:28;101715.47;;;13.02;59.93
21706;BME280;11014;53.076;18.208;2023-04-19T12:48:23;101710.50;;;12.99;59.37
21706;BME280;11014;53.076;18.208;2023-04-19T12:51:19;101716.34;;;12.96;59.55
21706;BME280;11014;53.076;18.208;2023-04-19T12:57:55;101723.59;;;12.96;59.62
21706;BME280;11014;53.076;18.208;2023-04-19T13:00:53;101718.88;;;12.91;59.67
21706;BME280;11014;53.076;18.208;2023-04-19T13:03:22;101719.19;;;12.77;59.62
21706;BME280;11014;53.076;18.208;2023-04-19T13:05:55;101715.03;;;12.74;59.95
21706;BME280;11014;53.076;18.208;2023-04-19T13:08:23;101715.72;;;12.70;60.15
21706;BME280;11014;53.076;18.208;2023-04-19T13:11:11;101721.38;;;12.62;60.28
21706;BME280;11014;53.076;18.208;2023-04-19T13:13:47;101718.66;;;12.62;60.32
21706;BME280;11014;53.076;18.208;2023-04-19T13:16:15;101721.94;;;12.70;60.74
21706;BME280;11014;53.076;18.208;2023-04-19T13:19:01;101715.66;;;12.76;60.76